createdAt,value
2018-04-10T00:01:52.501Z,75.70
2018-04-10T00:04:20.557Z,77.17
2018-04-10T00:06:48.014Z,70.20
2018-04-10T00:09:15.515Z,90.30
2018-04-10T00:11:43.070Z,81.73
2018-04-10T00:14:10.552Z,71.10
2018-04-10T00:16:38.002Z,70.83
2018-04-10T00:19:05.538Z,69.00
2018-04-10T00:21:33.146Z,78.33
2018-04-10T00:24:01.477Z,65.33
2018-04-10T00:26:29.035Z,72.20
2018-04-10T00:28:56.589Z,70.30
2018-04-10T00:31:24.113Z,69.53
2018-04-10T00:33:51.580Z,72.20
2018-04-10T00:36:19.027Z,70.77
2018-04-10T00:38:46.489Z,71.53
2018-04-10T00:41:13.942Z,59.63
2018-04-10T00:43:41.406Z,72.77
2018-04-10T00:46:08.879Z,68.77
2018-04-10T00:48:36.342Z,66.37
2018-04-10T00:51:03.822Z,70.53
2018-04-10T00:53:37.402Z,72.30
2018-04-10T00:56:06.378Z,75.13
2018-04-10T00:58:33.846Z,64.37
2018-04-10T01:01:01.393Z,65.40
2018-04-10T01:03:28.849Z,78.87
2018-04-10T01:05:56.427Z,70.50
2018-04-10T01:08:23.992Z,67.00
2018-04-10T01:10:51.452Z,68.23
2018-04-10T01:13:19.669Z,63.43
2018-04-10T01:15:47.124Z,71.33
2018-04-10T01:18:14.606Z,79.50
2018-04-10T01:20:42.059Z,75.93
2018-04-10T01:23:09.521Z,83.67
2018-04-10T01:25:36.973Z,62.77
2018-04-10T01:28:04.453Z,73.47
2018-04-10T01:30:31.926Z,77.73
2018-04-10T01:33:00.181Z,76.40
2018-04-10T01:35:27.637Z,84.90
2018-04-10T01:37:55.186Z,72.83
2018-04-10T01:40:22.734Z,72.20
2018-04-10T01:42:50.301Z,80.87
2018-04-10T01:45:17.859Z,77.00
2018-04-10T01:47:45.402Z,76.10
2018-04-10T01:50:12.989Z,70.37
2018-04-10T01:52:41.238Z,70.77
2018-04-10T01:55:08.685Z,78.07
2018-04-10T01:57:36.254Z,79.30
2018-04-10T02:00:03.835Z,88.63
2018-04-10T02:02:31.372Z,76.37
2018-04-10T02:04:58.927Z,77.77
2018-04-10T02:07:26.370Z,83.80
2018-04-10T02:09:53.907Z,74.80
2018-04-10T02:12:21.405Z,80.03
2018-04-10T02:14:48.873Z,86.20
2018-04-10T02:17:16.409Z,79.07
2018-04-10T02:19:44.196Z,86.63
2018-04-10T02:22:11.723Z,80.60
2018-04-10T02:24:39.192Z,90.00
2018-04-10T02:27:06.742Z,83.33
2018-04-10T02:29:34.297Z,77.50
2018-04-10T02:32:01.856Z,80.40
2018-04-10T02:34:29.453Z,83.60
2018-04-10T02:36:57.698Z,75.60
2018-04-10T02:39:25.169Z,75.90
2018-04-10T02:41:52.653Z,85.00
2018-04-10T02:44:20.126Z,83.60
2018-04-10T02:46:47.617Z,73.47
2018-04-10T02:49:15.082Z,85.10
2018-04-10T02:51:42.667Z,82.07
2018-04-10T02:54:11.103Z,85.57
2018-04-10T02:56:38.664Z,83.87
2018-04-10T02:59:06.113Z,74.13
2018-04-10T03:01:33.717Z,84.13
2018-04-10T03:04:01.960Z,77.50
2018-04-10T03:06:29.512Z,91.47
2018-04-10T03:08:57.074Z,84.13
2018-04-10T03:11:24.666Z,89.83
2018-04-10T03:13:52.971Z,81.30
2018-04-10T03:16:20.606Z,77.30
2018-04-10T03:18:48.848Z,85.50
2018-04-10T03:21:16.346Z,94.87
2018-04-10T03:23:44.577Z,73.97
2018-04-10T03:26:12.132Z,78.93
2018-04-10T03:28:39.780Z,80.57
2018-04-10T03:31:07.297Z,82.73
2018-04-10T03:33:35.654Z,77.97
2018-04-10T03:36:03.891Z,82.73
2018-04-10T03:38:31.439Z,81.50
2018-04-10T03:40:59.014Z,84.33
2018-04-10T03:43:26.458Z,84.97
2018-04-10T03:45:54.014Z,84.23
2018-04-10T03:48:21.475Z,86.07
2018-04-10T03:50:49.036Z,77.87
2018-04-10T03:53:16.469Z,73.37
2018-04-10T03:55:43.974Z,78.37
2018-04-10T03:58:11.395Z,88.23
2018-04-10T04:00:39.105Z,83.90
2018-04-10T04:03:07.309Z,71.70
2018-04-10T04:05:34.794Z,83.73
2018-04-10T04:08:02.254Z,76.27
2018-04-10T04:10:29.701Z,80.10
2018-04-10T04:12:57.252Z,82.17
2018-04-10T04:15:24.811Z,81.87
2018-04-10T04:17:52.292Z,83.10
2018-04-10T04:20:31.605Z,83.30
2018-04-10T04:22:59.086Z,88.10
2018-04-10T04:25:27.381Z,75.57
2018-04-10T04:27:55.665Z,77.90
2018-04-10T04:30:23.224Z,82.80
2018-04-10T04:32:50.776Z,85.90
2018-04-10T04:35:19.008Z,85.53
2018-04-10T04:37:47.292Z,88.20
2018-04-10T04:40:14.779Z,98.63
2018-04-10T04:42:43.162Z,82.60
2018-04-10T04:45:10.610Z,77.80
2018-04-10T04:47:38.245Z,90.13
2018-04-10T04:50:05.777Z,87.27
2018-04-10T04:52:33.241Z,82.10
2018-04-10T04:55:00.728Z,81.33
2018-04-10T04:57:28.950Z,87.20
2018-04-10T04:59:56.624Z,81.13
2018-04-10T05:02:24.070Z,94.00
2018-04-10T05:04:51.526Z,90.53
2018-04-10T05:07:19.061Z,83.33
2018-04-10T05:09:46.489Z,94.80
2018-04-10T05:12:15.224Z,84.07
2018-04-10T05:14:42.675Z,85.03
2018-04-10T05:17:10.138Z,91.63
2018-04-10T05:19:37.666Z,93.23
2018-04-10T05:22:05.329Z,88.33
2018-04-10T05:24:32.786Z,92.50
2018-04-10T05:27:00.239Z,82.67
2018-04-10T05:29:27.932Z,88.40
2018-04-10T05:31:55.394Z,88.60
2018-04-10T05:34:22.923Z,85.10
2018-04-10T05:36:50.399Z,87.53
2018-04-10T05:39:17.857Z,77.57
2018-04-10T05:41:45.401Z,85.50
2018-04-10T05:44:12.851Z,86.93
2018-04-10T05:46:40.326Z,80.97
2018-04-10T05:49:07.891Z,80.07
2018-04-10T05:51:35.637Z,91.80
2018-04-10T05:54:03.109Z,81.53
2018-04-10T05:56:30.566Z,91.27
2018-04-10T05:58:58.115Z,80.93
2018-04-10T06:01:25.670Z,77.80
2018-04-10T06:03:53.333Z,86.30
2018-04-10T06:06:20.885Z,75.10
2018-04-10T06:08:48.340Z,76.60
2018-04-10T06:11:15.800Z,70.53
2018-04-10T06:13:43.279Z,73.93
2018-04-10T06:16:10.905Z,70.20
2018-04-10T06:18:38.377Z,69.50
2018-04-10T06:21:05.873Z,65.37
2018-04-10T06:23:33.378Z,65.83
2018-04-10T06:26:00.932Z,68.00
2018-04-10T06:28:28.393Z,69.90
2018-04-10T06:30:55.955Z,55.53
2018-04-10T06:33:23.465Z,63.40
2018-04-10T06:35:51.665Z,61.43
2018-04-10T06:38:19.249Z,58.57
2018-04-10T06:40:46.698Z,65.80
2018-04-10T06:43:14.157Z,65.17
2018-04-10T06:45:41.608Z,67.00
2018-04-10T06:48:09.161Z,65.70
2018-04-10T06:50:36.613Z,65.80
2018-04-10T06:53:04.068Z,64.70
2018-04-10T06:55:31.531Z,74.23
2018-04-10T06:57:59.082Z,59.43
2018-04-10T07:00:26.536Z,60.60
2018-04-10T07:02:54.210Z,67.77
2018-04-10T07:05:21.672Z,63.50
2018-04-10T07:07:49.225Z,53.87
2018-04-10T07:10:16.775Z,57.80
2018-04-10T07:12:44.316Z,59.03
2018-04-10T07:15:11.828Z,53.10
2018-04-10T07:17:39.341Z,72.43
2018-04-10T07:20:06.905Z,53.27
2018-04-10T07:22:34.466Z,54.97
2018-04-10T07:25:01.924Z,59.97
2018-04-10T07:27:29.477Z,51.90
2018-04-10T07:29:56.961Z,48.73
2018-04-10T07:32:25.179Z,55.03
2018-04-10T07:34:52.899Z,48.03
2018-04-10T07:37:21.114Z,51.23
2018-04-10T07:39:48.637Z,45.73
2018-04-10T07:42:16.051Z,52.43
2018-04-10T07:44:43.503Z,47.43
2018-04-10T07:47:11.058Z,46.17
2018-04-10T07:49:38.525Z,42.63
2018-04-10T07:52:06.027Z,48.47
2018-04-10T07:54:33.539Z,41.73
2018-04-10T07:57:01.193Z,38.90
2018-04-10T07:59:28.777Z,42.20
2018-04-10T08:01:57.030Z,47.30
2018-04-10T08:04:24.607Z,43.03
2018-04-10T08:06:53.574Z,43.13
2018-04-10T08:09:21.033Z,37.23
2018-04-10T08:11:48.502Z,37.50
2018-04-10T08:14:15.949Z,48.70
2018-04-10T08:16:43.398Z,39.37
2018-04-10T08:19:10.961Z,37.70
2018-04-10T08:21:38.518Z,34.53
2018-04-10T08:24:06.073Z,33.37
2018-04-10T08:26:33.505Z,40.67
2018-04-10T08:29:01.117Z,36.57
2018-04-10T08:31:29.330Z,32.27
2018-04-10T08:33:56.779Z,44.40
2018-04-10T08:36:24.238Z,42.63
2018-04-10T08:38:51.698Z,32.77
2018-04-10T08:41:19.143Z,33.20
2018-04-10T08:43:46.633Z,29.70
2018-04-10T08:46:14.092Z,36.37
2018-04-10T08:48:41.548Z,27.70
2018-04-10T08:51:09.033Z,27.90
2018-04-10T08:53:37.284Z,27.10
2018-04-10T08:56:04.736Z,30.07
2018-04-10T08:58:32.189Z,30.70
2018-04-10T09:00:59.770Z,33.77
2018-04-10T09:03:28.024Z,35.53
2018-04-10T09:05:55.569Z,33.10
2018-04-10T09:08:23.061Z,28.77
2018-04-10T09:10:50.658Z,29.10
2018-04-10T09:13:18.154Z,26.40
2018-04-10T09:15:47.143Z,37.30
2018-04-10T09:18:14.711Z,25.20
2018-04-10T09:20:42.290Z,27.90
2018-04-10T09:23:10.546Z,22.20
2018-04-10T09:25:37.998Z,21.63
2018-04-10T09:28:05.554Z,20.97
2018-04-10T09:30:33.092Z,21.67
2018-04-10T09:33:00.550Z,24.00
2018-04-10T09:35:28.009Z,29.33
2018-04-10T09:37:55.463Z,20.40
2018-04-10T09:40:23.038Z,18.93
2018-04-10T09:42:50.485Z,22.53
2018-04-10T09:45:17.962Z,27.93
2018-04-10T09:47:45.698Z,22.13
2018-04-10T09:50:13.502Z,25.13
2018-04-10T09:52:41.022Z,15.17
2018-04-10T09:55:08.481Z,20.13
2018-04-10T09:57:35.973Z,21.17
2018-04-10T10:00:04.193Z,15.23
2018-04-10T10:02:31.783Z,19.30
2018-04-10T10:04:59.354Z,13.83
2018-04-10T10:07:27.625Z,11.43
2018-04-10T10:09:55.060Z,12.40
2018-04-10T10:12:22.507Z,16.13
2018-04-10T10:14:50.036Z,12.97
2018-04-10T10:17:18.253Z,15.13
2018-04-10T10:19:45.695Z,17.40
2018-04-10T10:22:13.254Z,13.67
2018-04-10T10:24:40.799Z,14.00
2018-04-10T10:27:08.230Z,17.33
2018-04-10T10:29:35.694Z,17.50
2018-04-10T10:32:03.247Z,12.47
2018-04-10T10:34:30.695Z,9.67
2018-04-10T10:36:58.164Z,12.50
2018-04-10T10:39:25.645Z,20.83
2018-04-10T10:41:53.093Z,10.73
2018-04-10T10:44:20.657Z,12.60
2018-04-10T10:46:48.095Z,8.67
2018-04-10T10:49:15.554Z,7.77
2018-04-10T10:51:43.023Z,9.40
2018-04-10T10:54:10.484Z,9.03
2018-04-10T10:56:37.975Z,8.57
2018-04-10T10:59:06.309Z,8.07
2018-04-10T11:01:33.755Z,9.50
2018-04-10T11:04:01.197Z,8.87
2018-04-10T11:06:28.728Z,10.70
2018-04-10T11:08:56.130Z,7.50
2018-04-10T11:11:23.590Z,9.37
2018-04-10T11:13:51.145Z,10.63
2018-04-10T11:16:18.615Z,4.80
2018-04-10T11:18:46.073Z,5.40
2018-04-10T11:21:13.523Z,3.27
2018-04-10T11:23:40.983Z,4.70
2018-04-10T11:26:08.532Z,8.83
2018-04-10T11:28:35.991Z,8.70
2018-04-10T11:31:03.542Z,9.67
2018-04-10T11:33:31.033Z,18.63
2018-04-10T11:35:59.278Z,8.43
2018-04-10T11:38:26.726Z,11.23
2018-04-10T11:40:54.206Z,11.40
2018-04-10T11:43:21.650Z,10.50
2018-04-10T11:45:49.129Z,11.13
2018-04-10T11:48:17.376Z,16.00
2018-04-10T11:50:44.839Z,11.27
2018-04-10T11:53:12.285Z,8.77
2018-04-10T11:55:39.848Z,15.00
2018-04-10T11:58:07.438Z,9.97
2018-04-10T12:00:35.684Z,6.73
2018-04-10T12:03:03.913Z,12.33
2018-04-10T12:05:31.355Z,10.37
2018-04-10T12:07:58.875Z,11.40
2018-04-10T12:10:26.414Z,8.63
2018-04-10T12:12:53.865Z,13.37
2018-04-10T12:15:21.317Z,8.23
2018-04-10T12:17:48.798Z,10.40
2018-04-10T12:20:16.336Z,13.00
2018-04-10T12:22:43.799Z,8.17
2018-04-10T12:25:11.275Z,11.47
2018-04-10T12:27:38.721Z,11.73
2018-04-10T12:30:06.276Z,7.70
2018-04-10T12:32:33.832Z,9.73
2018-04-10T12:35:01.413Z,10.63
2018-04-10T12:37:29.636Z,11.37
2018-04-10T12:39:57.278Z,11.87
2018-04-10T12:42:24.764Z,11.37
2018-04-10T12:44:52.201Z,11.00
2018-04-10T12:47:19.678Z,10.87
2018-04-10T12:49:47.129Z,10.30
2018-04-10T12:52:14.605Z,10.47
2018-04-10T12:54:42.035Z,9.60
2018-04-10T12:57:09.508Z,10.43
2018-04-10T12:59:37.070Z,7.40
2018-04-10T13:02:04.533Z,10.93
2018-04-10T13:04:32.087Z,13.93
2018-04-10T13:06:59.588Z,12.33
2018-04-10T13:09:28.360Z,11.00
2018-04-10T13:11:56.632Z,10.30
2018-04-10T13:14:24.969Z,18.87
2018-04-10T13:16:52.532Z,14.03
2018-04-10T13:19:20.026Z,12.53
2018-04-10T13:21:48.333Z,15.10
2018-04-10T13:24:15.849Z,14.33
2018-04-10T13:26:43.386Z,11.80
2018-04-10T13:29:10.932Z,10.97
2018-04-10T13:31:38.601Z,14.13
2018-04-10T13:34:06.086Z,12.90
2018-04-10T13:36:34.317Z,12.93
2018-04-10T13:39:01.912Z,11.53
2018-04-10T13:41:30.096Z,14.13
2018-04-10T13:43:58.373Z,14.53
2018-04-10T13:46:26.760Z,13.57
2018-04-10T13:48:54.336Z,12.93
2018-04-10T13:51:21.878Z,11.73
2018-04-10T13:53:49.330Z,15.47
2018-04-10T13:56:16.785Z,11.67
2018-04-10T13:58:44.290Z,13.83
2018-04-10T14:01:11.733Z,20.10
2018-04-10T14:03:39.189Z,19.57
2018-04-10T14:06:06.675Z,18.83
2018-04-10T14:08:34.130Z,13.60
2018-04-10T14:11:01.595Z,17.60
2018-04-10T14:13:29.833Z,20.43
2018-04-10T14:15:57.302Z,16.57
2018-04-10T14:18:24.891Z,20.10
2018-04-10T14:20:53.244Z,17.20
2018-04-10T14:23:20.700Z,13.40
2018-04-10T14:25:48.350Z,15.40
2018-04-10T14:28:15.798Z,16.70
2018-04-10T14:30:43.381Z,19.27
2018-04-10T14:33:11.745Z,17.17
2018-04-10T14:35:39.234Z,15.17
2018-04-10T14:38:07.493Z,18.87
2018-04-10T14:40:34.957Z,22.60
2018-04-10T14:43:03.191Z,22.30
2018-04-10T14:45:30.663Z,21.90
2018-04-10T14:47:58.236Z,30.40
2018-04-10T14:50:26.462Z,20.37
2018-04-10T14:52:53.916Z,20.00
2018-04-10T14:55:21.526Z,24.00
2018-04-10T14:57:48.976Z,23.50
2018-04-10T15:00:16.507Z,20.53
2018-04-10T15:02:43.977Z,20.17
2018-04-10T15:05:12.934Z,20.90
2018-04-10T15:07:40.389Z,25.87
2018-04-10T15:10:07.874Z,24.77
2018-04-10T15:12:35.426Z,19.83
2018-04-10T15:15:02.926Z,21.40
2018-04-10T15:17:31.151Z,17.90
2018-04-10T15:19:59.353Z,31.37
2018-04-10T15:22:27.569Z,26.43
2018-04-10T15:24:55.054Z,21.70
2018-04-10T15:27:22.496Z,24.53
2018-04-10T15:29:50.185Z,26.43
2018-04-10T15:32:17.731Z,23.37
2018-04-10T15:34:45.289Z,23.60
2018-04-10T15:37:12.848Z,23.90
2018-04-10T15:39:40.501Z,34.43
2018-04-10T15:42:08.353Z,22.77
2018-04-10T15:44:35.854Z,26.20
2018-04-10T15:47:03.372Z,26.77
2018-04-10T15:49:30.838Z,23.50
2018-04-10T15:51:58.298Z,25.50
2018-04-10T15:54:25.967Z,26.67
2018-04-10T15:56:53.552Z,25.80
2018-04-10T15:59:21.072Z,31.47
2018-04-10T16:01:48.646Z,32.10
2018-04-10T16:04:16.290Z,32.00
2018-04-10T16:06:43.900Z,34.03
2018-04-10T16:09:11.362Z,35.23
2018-04-10T16:11:39.691Z,33.43
2018-04-10T16:14:07.939Z,32.60
2018-04-10T16:16:35.509Z,44.47
2018-04-10T16:19:03.087Z,37.33
2018-04-10T16:21:30.789Z,37.57
2018-04-10T16:23:58.521Z,36.50
2018-04-10T16:26:26.047Z,35.30
2018-04-10T16:28:53.512Z,36.20
2018-04-10T16:31:20.989Z,38.80
2018-04-10T16:33:48.630Z,37.93
2018-04-10T16:36:16.195Z,33.80
2018-04-10T16:38:43.802Z,37.70
2018-04-10T16:41:12.120Z,45.33
2018-04-10T16:43:40.423Z,42.07
2018-04-10T16:46:08.665Z,40.23
2018-04-10T16:48:36.140Z,42.00
2018-04-10T16:51:03.581Z,43.70
2018-04-10T16:53:31.513Z,50.10
2018-04-10T16:55:59.209Z,39.00
2018-04-10T16:58:28.365Z,40.40
2018-04-10T17:00:55.868Z,45.23
2018-04-10T17:03:24.073Z,45.87
2018-04-10T17:05:52.308Z,44.10
2018-04-10T17:08:19.854Z,41.50
2018-04-10T17:10:47.351Z,51.13
2018-04-10T17:13:14.874Z,45.40
2018-04-10T17:15:42.629Z,41.73
2018-04-10T17:18:10.093Z,47.83
2018-04-10T17:20:37.551Z,48.53
2018-04-10T17:23:05.025Z,43.60
2018-04-10T17:25:32.474Z,52.07
2018-04-10T17:28:00.029Z,50.17
2018-04-10T17:30:27.486Z,46.13
2018-04-10T17:32:54.933Z,54.27
2018-04-10T17:35:22.441Z,50.37
2018-04-10T17:37:49.889Z,49.33
2018-04-10T17:40:18.122Z,54.70
2018-04-10T17:42:45.689Z,54.97
2018-04-10T17:45:13.237Z,54.50
2018-04-10T17:47:40.686Z,53.23
2018-04-10T17:50:09.159Z,55.20
2018-04-10T17:52:36.636Z,48.90
2018-04-10T17:55:05.613Z,48.53
2018-04-10T17:57:33.193Z,56.10
2018-04-10T18:00:00.722Z,49.53
2018-04-10T18:02:28.381Z,47.30
2018-04-10T18:04:55.847Z,51.27
2018-04-10T18:07:23.402Z,54.17
2018-04-10T18:09:50.964Z,55.97
2018-04-10T18:12:18.405Z,50.10
2018-04-10T18:14:45.978Z,49.73
2018-04-10T18:17:13.611Z,49.03
2018-04-10T18:19:41.058Z,44.20
2018-04-10T18:22:08.510Z,46.00
2018-04-10T18:24:35.968Z,48.03
2018-04-10T18:27:03.460Z,45.70
2018-04-10T18:29:30.916Z,48.50
2018-04-10T18:31:58.476Z,50.73
2018-04-10T18:34:25.943Z,51.40
2018-04-10T18:36:53.393Z,48.50
2018-04-10T18:39:20.947Z,48.70
2018-04-10T18:41:48.493Z,56.63
2018-04-10T18:44:16.045Z,47.30
2018-04-10T18:46:43.534Z,60.90
2018-04-10T18:49:11.786Z,49.17
2018-04-10T18:51:40.238Z,51.50
2018-04-10T18:54:07.916Z,60.40
2018-04-10T18:56:35.385Z,56.40
2018-04-10T18:59:02.998Z,54.47
2018-04-10T19:01:30.497Z,58.40
2018-04-10T19:03:58.061Z,57.80
2018-04-10T19:06:25.586Z,57.17
2018-04-10T19:08:53.070Z,57.43
2018-04-10T19:11:20.528Z,57.30
2018-04-10T19:13:48.083Z,64.23
2018-04-10T19:16:15.635Z,64.07
2018-04-10T19:18:44.009Z,63.87
2018-04-10T19:21:11.743Z,59.30
2018-04-10T19:23:39.208Z,69.97
2018-04-10T19:26:06.655Z,67.50
2018-04-10T19:28:34.113Z,65.53
2018-04-10T19:31:01.595Z,71.13
2018-04-10T19:33:29.056Z,77.00
2018-04-10T19:35:56.620Z,71.07
2018-04-10T19:38:24.073Z,73.73
2018-04-10T19:40:51.595Z,76.73
2018-04-10T19:43:19.067Z,73.30
2018-04-10T19:45:46.567Z,74.27
2018-04-10T19:48:14.083Z,93.40
2018-04-10T19:50:41.542Z,75.27
2018-04-10T19:53:09.123Z,77.40
2018-04-10T19:55:36.573Z,80.30
2018-04-10T19:58:04.150Z,81.40
2018-04-10T20:00:31.615Z,91.43
2018-04-10T20:02:59.858Z,89.77
2018-04-10T20:05:27.346Z,80.37
2018-04-10T20:07:55.616Z,104.73
2018-04-10T20:10:23.866Z,103.30
2018-04-10T20:12:51.363Z,66.53
2018-04-10T20:15:18.901Z,71.03
2018-04-10T20:17:46.485Z,53.27
2018-04-10T20:20:13.946Z,46.03
2018-04-10T20:22:41.435Z,34.37
2018-04-10T20:25:08.922Z,39.67
2018-04-10T20:27:37.252Z,36.73
2018-04-10T20:30:04.751Z,47.97
2018-04-10T20:32:32.234Z,42.13
2018-04-10T20:35:00.512Z,41.93
2018-04-10T20:37:28.062Z,48.90
2018-04-10T20:39:56.334Z,51.93
2018-04-10T20:42:24.644Z,51.17
2018-04-10T20:44:52.121Z,55.67
2018-04-10T20:47:19.672Z,60.73
2018-04-10T20:49:47.159Z,50.07
2018-04-10T20:52:14.730Z,56.50
2018-04-10T20:54:42.292Z,51.17
2018-04-10T20:57:10.543Z,46.37
2018-04-10T20:59:38.091Z,45.33
2018-04-10T21:02:05.650Z,52.47
2018-04-10T21:04:33.244Z,49.87
2018-04-10T21:07:01.558Z,46.40
2018-04-10T21:09:29.064Z,43.40
2018-04-10T21:11:57.326Z,40.43
2018-04-10T21:14:24.943Z,36.87
2018-04-10T21:16:52.466Z,39.77
2018-04-10T21:19:20.015Z,37.97
2018-04-10T21:21:47.485Z,32.33
2018-04-10T21:24:15.747Z,37.07
2018-04-10T21:26:43.996Z,45.47
2018-04-10T21:29:11.594Z,39.17
2018-04-10T21:31:39.849Z,39.90
2018-04-10T21:34:07.404Z,36.67
2018-04-10T21:36:35.704Z,36.50
2018-04-10T21:39:03.968Z,37.37
2018-04-10T21:41:32.328Z,37.37
2018-04-10T21:43:59.821Z,36.83
2018-04-10T21:46:27.355Z,39.70
2018-04-10T21:48:55.648Z,43.67
2018-04-10T21:51:23.199Z,39.23
2018-04-10T21:53:51.478Z,35.97
2018-04-10T21:56:19.709Z,36.97
2018-04-10T21:58:47.199Z,37.07
2018-04-10T22:01:15.553Z,39.33
2018-04-10T22:03:43.053Z,32.07
2018-04-10T22:06:10.526Z,35.60
2018-04-10T22:08:38.044Z,34.53
2018-04-10T22:11:06.312Z,33.23
2018-04-10T22:13:33.865Z,29.87
2018-04-10T22:16:01.384Z,30.13
2018-04-10T22:18:28.889Z,33.80
2018-04-10T22:20:57.296Z,34.83
2018-04-10T22:23:24.811Z,33.60
2018-04-10T22:25:52.388Z,33.20
2018-04-10T22:28:20.945Z,38.83
2018-04-10T22:30:48.424Z,40.10
2018-04-10T22:33:15.894Z,34.87
2018-04-10T22:35:43.513Z,33.83
2018-04-10T22:38:11.795Z,38.17
2018-04-10T22:40:39.308Z,36.30
2018-04-10T22:43:06.985Z,36.20
2018-04-10T22:45:35.247Z,35.50
2018-04-10T22:48:02.763Z,36.03
2018-04-10T22:50:30.283Z,39.03
2018-04-10T22:52:58.525Z,46.20
2018-04-10T22:55:26.025Z,42.60
2018-04-10T22:57:54.302Z,41.00
2018-04-10T23:00:54.148Z,45.50
2018-04-10T23:03:21.753Z,43.63
2018-04-10T23:05:50.374Z,39.00
2018-04-10T23:08:17.857Z,38.50
2018-04-10T23:10:45.349Z,37.77
2018-04-10T23:13:12.858Z,36.90
2018-04-10T23:15:40.344Z,39.87
2018-04-10T23:18:07.843Z,39.60
2018-04-10T23:20:35.400Z,38.27
2018-04-10T23:23:03.057Z,38.00
2018-04-10T23:25:30.666Z,36.60
2018-04-10T23:27:58.152Z,37.97
2018-04-10T23:30:25.712Z,37.47
2018-04-10T23:32:53.184Z,42.77
2018-04-10T23:35:20.779Z,37.70
2018-04-10T23:37:48.282Z,38.53
2018-04-10T23:40:15.769Z,39.03
2018-04-10T23:42:43.271Z,38.47
2018-04-10T23:45:10.777Z,46.77
2018-04-10T23:47:38.354Z,46.50
2018-04-10T23:50:06.616Z,36.43
2018-04-10T23:52:34.225Z,41.00
2018-04-10T23:55:01.735Z,39.43
2018-04-10T23:57:30.008Z,39.00
2018-04-10T23:59:57.565Z,38.77
